ADDS METAR Data INFO
IDs: Format: Raw Decoded Include TAF

Data at: 1510 UTC 23 Oct 2017

KCNO 231453Z 04003KT 10SM CLR 18/06 A3011 RMK AO2 SLP191 T01830056 53009
KCNO 231353Z 00000KT 10SM CLR 13/06 A3010 RMK AO2 SLP188 T01280061
KCNO 231253Z AUTO 00000KT 7SM CLR 14/07 A3009 RMK AO2 SLP184 T01390067
KCNO 231153Z AUTO 00000KT 7SM CLR 14/07 A3009 RMK AO2 SLP181 T01440072 10200 20133 56004
KCNO 231053Z AUTO 00000KT 8SM CLR 15/07 A3009 RMK AO2 SLP182 T01500072
KCNO 230953Z AUTO 00000KT 8SM CLR 17/06 A3010 RMK AO2 SLP184 T01720061
KCNO 230853Z AUTO 35003KT 6SM HZ CLR 16/08 A3010 RMK AO2 SLP185 T01610078 56003
KCNO 230753Z AUTO 04003KT 9SM CLR 19/06 A3010 RMK AO2 SLP186 T01940056 403670111
KCNO 230653Z AUTO 03004KT 7SM CLR 17/08 A3010 RMK AO2 SLP186 T01720078
KCNO 230553Z AUTO 00000KT 7SM CLR 19/07 A3011 RMK AO2 SLP190 T01940072 10356 20183 51005
KCNO 230453Z AUTO 00000KT 7SM CLR 20/07 A3010 RMK AO2 SLP188 T02000072
KCNO 230353Z 00000KT 10SM CLR 21/06 A3010 RMK AO2 SLP188 T02110061
KCNO 230253Z 00000KT 10SM CLR 26/04 A3009 RMK AO2 SLP185 T02560044 53010
KCNO 230153Z 00000KT 9SM CLR 27/06 A3008 RMK AO2 SLP180 T02670056
KCNO 230053Z 00000KT 10SM CLR 33/04 A3006 RMK AO2 SLP174 T03280039
KCNO 222353Z 00000KT 10SM CLR 36/03 A3006 RMK AO2 SLP174 T03560028 10367 20289 56011
KCNO 222253Z 34006KT 10SM CLR 35/07 A3007 RMK AO2 SLP177 T03500072
KCNO 222153Z 33003KT 10SM CLR 35/03 A3007 RMK AO2 SLP179 T03500033
KCNO 222053Z 00000KT 10SM CLR 34/01 A3009 RMK AO2 SLP186 T03440011 58020
KCNO 221953Z 00000KT 10SM CLR 33/03 A3012 RMK AO2 SLP194 T03330028
KCNO 221853Z 00000KT 10SM CLR 31/02 A3014 RMK AO2 SLP201 T03060017
KCNO 221753Z 35003KT 10SM CLR 29/04 A3016 RMK AO2 SLP206 T02890044 10289 20111 50006
KCNO 221653Z 00000KT 10SM CLR 24/04 A3016 RMK AO2 SLP209 T02440044
KCNO 221553Z 00000KT 10SM CLR 20/07 A3016 RMK AO2 SLP207 T02000067
KCNO 221453Z COR VRB04KT 10SM CLR 14/08 A3014 RMK AO2 SLP202 T01390078 53006
KCNO 221353Z 05003KT 10SM CLR 14/04 A3013 RMK AO2 SLP199 T01440039
KCNO 221253Z AUTO VRB03KT 9SM CLR 14/03 A3013 RMK AO2 SLP197 T01440033
KCNO 221153Z AUTO 00000KT 8SM CLR 13/07 A3012 RMK AO2 SLP195 T01330067 10172 20111 55007
KCNO 221053Z AUTO 00000KT 6SM HZ CLR 13/07 A3012 RMK AO2 SLP194 T01280067
KCNO 220953Z 00000KT 7SM CLR 13/07 A3013 RMK AO2 SLP198 T01330072
KCNO 220853Z 00000KT 7SM CLR 14/07 A3014 RMK AO2 SLP202 T01390072 52010
KCNO 220753Z 13003KT 7SM CLR 14/07 A3013 RMK AO2 SLP200 T01390067 402830111
KCNO 220653Z 01003KT 7SM CLR 16/07 A3012 RMK AO2 SLP197 T01560067
KCNO 220553Z 26003KT 7SM CLR 16/07 A3011 RMK AO2 SLP193 T01610072 10267 20156 51012
KCNO 220453Z 02003KT 6SM HZ CLR 17/08 A3011 RMK AO2 SLP191 T01670083
KCNO 220353Z 00000KT 10SM CLR 19/07 A3009 RMK AO2 SLP187 T01940072